Time;durP1;ratioP1;P1;durP2;ratioP2;P2;SDS_P1;SDS_P2;PMS_P1;PMS_P2;Temp;Humidity;BMP_temperature;BMP_pressure;BME280_temperature;BME280_humidity;BME280_pressure;Samples;Min_cycle;Max_cycle;Signal;HPM_P1;HPM_P2
2023/10/02 00:01:58;;;;;;;23.27;13.35;;;17.90;99.90;;;;;;4976232;28;20056;-59
2023/10/02 00:04:24;;;;;;;21.45;13.40;;;17.80;99.90;;;;;;4976346;28;20050;-59
2023/10/02 00:07:05;;;;;;;23.50;13.45;;;17.90;99.90;;;;;;4975922;28;20110;-59
2023/10/02 00:09:36;;;;;;;23.98;14.07;;;18.00;99.90;;;;;;4978253;28;20065;-59
2023/10/02 00:12:11;;;;;;;20.30;12.68;;;17.90;99.90;;;;;;4995549;28;20050;-60
2023/10/02 00:14:41;;;;;;;20.75;13.20;;;17.90;99.90;;;;;;4995680;28;20050;-60
2023/10/02 00:17:14;;;;;;;23.67;14.00;;;18.00;99.90;;;;;;4994854;28;20066;-61
2023/10/02 00:19:44;;;;;;;24.95;12.55;;;18.00;99.90;;;;;;4997360;28;20065;-61
2023/10/02 00:22:58;;;;;;;22.95;12.88;;;17.90;99.90;;;;;;5014770;28;20470;-61
2023/10/02 00:25:09;;;;;;;23.17;13.75;;;17.90;99.90;;;;;;5007437;28;20124;-59
2023/10/02 00:27:36;;;;;;;21.60;12.85;;;17.90;99.90;;;;;;5014493;28;20042;-58
2023/10/02 00:30:07;;;;;;;23.70;13.77;;;17.90;99.90;;;;;;5009597;28;20054;-61
2023/10/02 00:32:34;;;;;;;23.42;13.80;;;18.00;99.90;;;;;;4995204;28;20050;-59
2023/10/02 00:35:02;;;;;;;23.40;13.77;;;18.00;99.90;;;;;;4995183;28;20055;-61
2023/10/02 00:37:51;;;;;;;24.20;13.73;;;18.00;99.90;;;;;;4995201;28;20100;-58
2023/10/02 00:40:21;;;;;;;25.70;13.98;;;17.90;99.90;;;;;;5010922;28;20061;-57
2023/10/02 00:42:55;;;;;;;23.48;14.30;;;17.90;99.90;;;;;;5014293;28;20065;-56
2023/10/02 00:45:38;;;;;;;22.23;14.27;;;17.90;99.90;;;;;;5014176;28;20058;-61
2023/10/02 00:51:07;;;;;;;27.50;14.18;;;17.90;99.90;;;;;;4961575;28;20046;-59
2023/10/02 00:53:48;;;;;;;23.27;13.73;;;17.90;99.90;;;;;;4994729;28;20058;-59
2023/10/02 00:56:19;;;;;;;25.50;13.70;;;17.90;99.90;;;;;;4994241;28;20066;-59
2023/10/02 00:59:01;;;;;;;21.60;12.73;;;17.80;99.90;;;;;;4994570;28;20153;-60
2023/10/02 01:01:31;;;;;;;24.40;13.15;;;17.90;99.90;;;;;;5011162;28;20144;-61
2023/10/02 01:04:23;;;;;;;25.90;14.38;;;17.90;99.90;;;;;;5013914;28;20435;-60
2023/10/02 01:06:54;;;;;;;23.08;13.45;;;17.80;99.90;;;;;;5013009;28;20069;-60
2023/10/02 01:09:26;;;;;;;22.45;14.13;;;17.80;99.90;;;;;;5013922;28;20453;-59
2023/10/02 01:11:57;;;;;;;22.63;14.02;;;17.90;99.90;;;;;;4993921;28;20054;-59
2023/10/02 01:17:16;;;;;;;23.88;12.98;;;17.80;99.90;;;;;;4993847;28;20125;-64
2023/10/02 01:19:57;;;;;;;22.17;13.85;;;17.80;99.90;;;;;;4996568;28;20050;-59
2023/10/02 01:22:31;;;;;;;22.55;12.88;;;17.80;99.90;;;;;;5013431;28;20061;-59
2023/10/02 01:25:15;;;;;;;20.08;14.10;;;17.80;99.90;;;;;;5013667;28;20140;-61
2023/10/02 01:27:47;;;;;;;23.08;12.85;;;17.90;99.90;;;;;;5013124;28;20374;-61
2023/10/02 01:30:18;;;;;;;23.70;13.30;;;17.90;99.90;;;;;;5013057;28;20126;-59
2023/10/02 01:33:06;;;;;;;22.67;13.23;;;17.80;99.90;;;;;;5012939;28;20431;-59
2023/10/02 01:35:35;;;;;;;24.38;13.27;;;17.90;99.90;;;;;;4995804;28;20071;-60
2023/10/02 01:38:01;;;;;;;23.52;13.63;;;17.80;99.90;;;;;;5013371;28;20061;-60
2023/10/02 01:40:33;;;;;;;22.85;14.00;;;17.80;99.90;;;;;;5012391;28;20125;-61
2023/10/02 01:43:12;;;;;;;22.00;14.10;;;17.80;99.90;;;;;;5013102;28;20506;-60
2023/10/02 01:45:42;;;;;;;22.73;14.30;;;17.70;99.90;;;;;;5013304;28;20061;-61
2023/10/02 01:48:15;;;;;;;21.15;12.68;;;17.70;99.90;;;;;;5013361;28;20443;-60
2023/10/02 01:50:45;;;;;;;21.67;13.70;;;17.80;99.90;;;;;;5012945;28;20058;-61
2023/10/02 01:53:30;;;;;;;23.20;13.85;;;17.80;99.90;;;;;;5013319;28;20054;-61
2023/10/02 01:56:00;;;;;;;23.80;13.48;;;17.70;99.90;;;;;;5013076;28;20045;-59
2023/10/02 01:58:27;;;;;;;24.98;13.63;;;17.70;99.90;;;;;;5011999;28;20459;-59
2023/10/02 02:00:54;;;;;;;19.00;12.18;;;17.80;99.90;;;;;;5012980;28;20050;-59
2023/10/02 02:03:22;;;;;;;20.30;13.43;;;17.60;99.90;;;;;;5012377;28;20053;-59
2023/10/02 02:05:49;;;;;;;22.90;13.43;;;17.80;99.90;;;;;;5012528;28;20347;-59
2023/10/02 02:08:22;;;;;;;24.10;13.60;;;17.70;99.90;;;;;;4995411;28;20509;-60
2023/10/02 02:10:54;;;;;;;23.55;12.90;;;17.80;99.90;;;;;;5012939;28;20069;-60
2023/10/02 02:13:22;;;;;;;22.27;13.38;;;17.80;99.90;;;;;;5012808;28;20141;-60
2023/10/02 02:15:51;;;;;;;23.95;13.80;;;17.70;99.90;;;;;;5012502;28;20108;-58
2023/10/02 02:18:20;;;;;;;20.75;13.20;;;17.60;99.90;;;;;;5012741;28;20171;-60
2023/10/02 02:20:59;;;;;;;22.55;11.60;;;17.70;99.90;;;;;;5012699;28;20410;-60
2023/10/02 02:23:28;;;;;;;23.95;12.57;;;17.60;99.90;;;;;;5012764;28;20397;-59
2023/10/02 02:25:54;;;;;;;21.42;12.32;;;17.60;99.90;;;;;;5012099;28;20342;-61
2023/10/02 02:28:22;;;;;;;23.88;13.88;;;17.60;99.90;;;;;;5012724;28;20068;-62
2023/10/02 02:30:48;;;;;;;23.52;13.07;;;17.50;99.90;;;;;;4994833;28;20148;-59
2023/10/02 02:33:15;;;;;;;23.88;14.02;;;17.50;99.90;;;;;;5012387;28;20053;-61
2023/10/02 02:35:44;;;;;;;26.38;13.85;;;17.50;99.90;;;;;;5011848;28;20050;-61
2023/10/02 02:38:16;;;;;;;21.20;12.75;;;17.40;99.90;;;;;;5012564;28;20053;-61
2023/10/02 02:40:42;;;;;;;20.70;13.10;;;17.30;99.90;;;;;;5011034;28;20046;-59
2023/10/02 02:43:19;;;;;;;22.15;12.68;;;17.20;99.90;;;;;;5011927;28;20478;-60
2023/10/02 02:45:45;;;;;;;20.63;12.82;;;17.30;99.90;;;;;;5010937;28;20325;-60
2023/10/02 02:48:15;;;;;;;24.65;13.02;;;17.10;99.90;;;;;;4994182;28;20080;-60
2023/10/02 02:50:43;;;;;;;23.42;13.52;;;17.10;99.90;;;;;;4993889;28;20062;-61
2023/10/02 02:53:17;;;;;;;24.23;13.73;;;17.00;99.90;;;;;;5011553;28;20332;-60
2023/10/02 02:55:44;;;;;;;25.17;13.70;;;17.00;99.90;;;;;;5010926;28;20049;-60
2023/10/02 02:58:11;;;;;;;21.17;11.82;;;17.00;99.90;;;;;;5010186;28;20065;-61
2023/10/02 03:00:39;;;;;;;22.08;12.90;;;16.90;99.90;;;;;;5011031;28;20050;-60
2023/10/02 03:03:32;;;;;;;22.92;13.63;;;16.90;99.90;;;;;;4994041;28;20058;-61
2023/10/02 03:05:58;;;;;;;21.70;12.38;;;16.80;99.90;;;;;;5010761;28;20139;-59
2023/10/02 03:08:37;;;;;;;24.40;13.07;;;16.90;99.90;;;;;;5011169;28;20073;-59
2023/10/02 03:11:08;;;;;;;21.13;12.93;;;16.80;99.90;;;;;;5010763;28;20056;-61
2023/10/02 03:13:34;;;;;;;20.63;12.73;;;16.80;99.90;;;;;;5011322;28;20046;-58
2023/10/02 03:16:08;;;;;;;22.52;13.30;;;16.80;99.90;;;;;;5009575;28;20459;-59
2023/10/02 03:18:38;;;;;;;21.88;12.60;;;16.70;99.90;;;;;;5011178;28;20108;-59
2023/10/02 03:21:14;;;;;;;23.10;13.35;;;16.70;99.90;;;;;;5011084;28;20046;-60
2023/10/02 03:23:42;;;;;;;22.25;12.52;;;16.60;99.90;;;;;;5010880;28;20309;-61
2023/10/02 03:26:27;;;;;;;21.00;13.13;;;16.60;99.90;;;;;;5010648;28;20049;-60
2023/10/02 03:29:02;;;;;;;19.35;11.40;;;16.60;99.90;;;;;;5010681;28;20407;-62
2023/10/02 03:31:49;;;;;;;20.95;12.88;;;16.50;99.90;;;;;;5010564;28;20053;-59
2023/10/02 03:34:27;;;;;;;19.85;12.40;;;16.50;99.90;;;;;;5010630;28;20050;-59
2023/10/02 03:37:14;;;;;;;23.27;13.70;;;16.50;99.90;;;;;;5010160;28;20056;-60
2023/10/02 03:39:51;;;;;;;19.42;13.23;;;16.50;99.90;;;;;;4944058;28;1929517;-61
2023/10/02 03:42:25;;;;;;;22.60;13.25;;;16.50;99.90;;;;;;5011792;28;20053;-60
2023/10/02 03:44:59;;;;;;;20.67;13.15;;;16.50;99.90;;;;;;5011793;28;20069;-60
2023/10/02 03:47:30;;;;;;;20.05;12.73;;;16.60;99.90;;;;;;5011482;28;20054;-61
2023/10/02 03:50:00;;;;;;;20.70;12.45;;;16.50;99.90;;;;;;5011367;28;20054;-59
2023/10/02 03:52:28;;;;;;;23.90;13.02;;;16.50;99.90;;;;;;5011184;28;20054;-59
2023/10/02 03:54:55;;;;;;;25.05;14.40;;;16.50;99.90;;;;;;5011401;28;20046;-58
2023/10/02 03:57:47;;;;;;;20.95;12.80;;;16.50;99.90;;;;;;5011180;28;20050;-60
2023/10/02 04:02:49;;;;;;;22.70;12.85;;;16.40;99.90;;;;;;5011355;28;20042;-60
2023/10/02 04:05:30;;;;;;;21.75;13.02;;;16.30;99.90;;;;;;5011276;28;20100;-59
2023/10/02 04:08:13;;;;;;;24.70;12.68;;;16.40;99.90;;;;;;5010570;28;20046;-59
2023/10/02 04:10:55;;;;;;;22.75;13.35;;;16.40;99.90;;;;;;5011263;28;20049;-59
2023/10/02 04:13:29;;;;;;;21.23;12.38;;;16.30;99.90;;;;;;5011291;28;20133;-58
2023/10/02 04:16:28;;;;;;;25.92;13.73;;;16.40;99.90;;;;;;5011642;28;20144;-60
2023/10/02 04:18:58;;;;;;;23.92;13.02;;;16.40;99.90;;;;;;5011196;28;20171;-59
2023/10/02 04:21:25;;;;;;;20.65;12.68;;;16.50;99.90;;;;;;5011003;28;20054;-59
2023/10/02 04:23:53;;;;;;;17.25;12.20;;;16.40;99.90;;;;;;5010308;28;20447;-61
2023/10/02 04:26:20;;;;;;;21.30;12.05;;;16.50;99.90;;;;;;5011146;28;20050;-59
2023/10/02 04:28:55;;;;;;;20.00;11.75;;;16.40;99.90;;;;;;5014052;28;20444;-59
2023/10/02 04:31:29;;;;;;;21.67;12.43;;;16.40;99.90;;;;;;5014086;28;20491;-59
2023/10/02 04:37:19;;;;;;;21.05;13.00;;;16.50;99.90;;;;;;4934746;29;20056;-59
2023/10/02 04:42:25;;;;;;;19.50;12.20;;;16.50;99.90;;;;;;4988913;28;20061;-57
2023/10/02 04:45:20;;;;;;;19.10;13.10;;;16.40;99.90;;;;;;5014797;28;20049;-61
2023/10/02 04:47:47;;;;;;;23.67;11.82;;;16.40;99.90;;;;;;5014342;28;20084;-60
2023/10/02 04:53:00;;;;;;;21.48;12.90;;;16.30;99.90;;;;;;5014429;28;20493;-60
2023/10/02 04:55:32;;;;;;;22.33;13.25;;;16.30;99.90;;;;;;4996742;28;20056;-58
2023/10/02 04:58:09;;;;;;;20.85;12.60;;;16.30;99.90;;;;;;5013439;28;20058;-59
2023/10/02 05:00:44;;;;;;;22.40;12.48;;;16.40;99.90;;;;;;5013375;28;20037;-60
2023/10/02 05:03:24;;;;;;;22.27;13.05;;;16.30;99.90;;;;;;5012855;28;20053;-60
2023/10/02 05:05:55;;;;;;;26.00;13.00;;;16.30;99.90;;;;;;5011187;28;20042;-59
2023/10/02 05:08:41;;;;;;;24.80;14.02;;;16.40;99.90;;;;;;5013259;28;20068;-59
2023/10/02 05:11:23;;;;;;;24.67;13.10;;;16.40;99.90;;;;;;5010979;28;20077;-60
2023/10/02 05:13:59;;;;;;;24.48;12.52;;;16.40;99.90;;;;;;5011658;28;20046;-59
2023/10/02 05:16:45;;;;;;;22.63;13.25;;;16.30;99.90;;;;;;5007196;28;20042;-61
2023/10/02 05:19:15;;;;;;;23.80;13.18;;;16.30;99.90;;;;;;5012948;28;20473;-58
2023/10/02 05:21:50;;;;;;;19.92;12.32;;;16.20;99.90;;;;;;5012398;28;20481;-58
2023/10/02 05:24:18;;;;;;;21.73;11.98;;;16.20;99.90;;;;;;5013181;28;20112;-59
2023/10/02 05:26:46;;;;;;;22.77;11.93;;;16.20;99.90;;;;;;5012310;28;20108;-60
2023/10/02 05:29:17;;;;;;;20.42;12.25;;;16.10;99.90;;;;;;5013562;28;20058;-59
2023/10/02 05:31:45;;;;;;;21.98;12.35;;;16.10;99.90;;;;;;5013451;28;20123;-57
2023/10/02 05:34:24;;;;;;;22.60;11.80;;;16.10;99.90;;;;;;5013259;28;20367;-58
2023/10/02 05:39:34;;;;;;;21.10;12.23;;;16.10;99.90;;;;;;5011610;28;20054;-59
2023/10/02 05:42:06;;;;;;;22.10;12.02;;;16.20;99.90;;;;;;5012185;28;20120;-59
2023/10/02 05:44:36;;;;;;;18.58;11.82;;;16.20;99.90;;;;;;5013454;28;20073;-58
2023/10/02 05:47:07;;;;;;;24.42;12.52;;;16.20;99.90;;;;;;5012678;28;20069;-59
2023/10/02 05:49:36;;;;;;;24.05;12.63;;;16.10;99.90;;;;;;5012275;28;20065;-59
2023/10/02 05:52:07;;;;;;;19.52;11.82;;;16.10;99.90;;;;;;5012855;28;20169;-58
2023/10/02 05:54:36;;;;;;;21.65;12.77;;;16.20;99.90;;;;;;5012874;28;20469;-58
2023/10/02 05:57:09;;;;;;;24.50;13.25;;;16.10;99.90;;;;;;5011604;28;20050;-59
2023/10/02 05:59:45;;;;;;;25.02;13.40;;;16.20;99.90;;;;;;5011072;28;20156;-61
2023/10/02 06:02:17;;;;;;;23.42;12.75;;;16.20;99.90;;;;;;4994639;28;20061;-61
2023/10/02 06:04:52;;;;;;;23.10;11.88;;;16.10;99.90;;;;;;5012626;28;20119;-61
2023/10/02 06:10:08;;;;;;;20.73;12.70;;;16.20;99.90;;;;;;5011828;28;20053;-62
2023/10/02 06:12:36;;;;;;;22.88;12.93;;;16.20;99.90;;;;;;5011253;28;20045;-60
2023/10/02 06:15:42;;;;;;;22.60;12.77;;;16.20;99.90;;;;;;5012539;28;20222;-60
2023/10/02 06:17:49;;;;;;;23.65;11.93;;;16.20;99.90;;;;;;5012050;28;20046;-61
2023/10/02 06:20:17;;;;;;;21.70;12.48;;;16.40;99.90;;;;;;5012647;28;20050;-60
2023/10/02 06:22:47;;;;;;;21.58;12.55;;;16.50;99.90;;;;;;5012218;28;20053;-60
2023/10/02 06:25:18;;;;;;;21.77;11.80;;;16.50;99.90;;;;;;5012483;28;20050;-59
2023/10/02 06:27:52;;;;;;;23.13;13.07;;;16.60;99.90;;;;;;5011918;28;20064;-59
2023/10/02 06:30:18;;;;;;;20.48;11.73;;;16.60;99.90;;;;;;5012121;28;20122;-59
2023/10/02 06:32:54;;;;;;;20.63;11.80;;;16.50;99.90;;;;;;4994880;28;20486;-60
2023/10/02 06:35:24;;;;;;;22.60;12.40;;;16.60;99.90;;;;;;5012437;28;20046;-59
2023/10/02 06:37:52;;;;;;;20.92;11.82;;;16.60;99.90;;;;;;5011915;28;20050;-60
2023/10/02 06:40:23;;;;;;;21.35;12.75;;;16.50;99.90;;;;;;5011630;28;20416;-59
2023/10/02 06:42:52;;;;;;;23.85;11.77;;;16.50;99.90;;;;;;5012200;28;20104;-59
2023/10/02 06:45:20;;;;;;;20.40;12.10;;;16.50;99.90;;;;;;4995276;28;20050;-59
2023/10/02 06:47:50;;;;;;;22.90;12.30;;;16.50;99.90;;;;;;5012222;28;20046;-60
2023/10/02 06:50:34;;;;;;;20.70;11.30;;;16.50;99.90;;;;;;5011646;28;20046;-59
2023/10/02 06:53:01;;;;;;;20.38;12.13;;;16.50;99.90;;;;;;5012524;28;20263;-59
2023/10/02 06:55:29;;;;;;;22.30;12.20;;;16.60;99.90;;;;;;4994933;28;20088;-62
2023/10/02 06:57:56;;;;;;;19.77;12.15;;;16.60;99.90;;;;;;4994424;28;20046;-59
2023/10/02 07:00:35;;;;;;;22.73;13.15;;;16.70;99.90;;;;;;5011688;28;20057;-60
2023/10/02 07:03:03;;;;;;;18.65;10.38;;;16.80;99.90;;;;;;5012514;28;20057;-59
2023/10/02 07:05:33;;;;;;;19.65;11.55;;;16.90;99.90;;;;;;5012234;28;20089;-59
2023/10/02 07:08:02;;;;;;;18.30;11.70;;;17.00;99.90;;;;;;5011601;28;20045;-61
2023/10/02 07:10:41;;;;;;;22.92;12.35;;;17.00;99.90;;;;;;5012153;28;20049;-59
2023/10/02 07:13:21;;;;;;;20.33;12.35;;;17.10;99.90;;;;;;5012101;28;20050;-59
2023/10/02 07:15:51;;;;;;;19.77;12.35;;;17.10;99.90;;;;;;5011962;28;20049;-59
2023/10/02 07:18:20;;;;;;;22.23;12.80;;;17.20;99.90;;;;;;5011938;28;20050;-61
2023/10/02 07:20:52;;;;;;;24.17;12.43;;;17.30;99.90;;;;;;5011732;28;20366;-59
2023/10/02 07:23:19;;;;;;;21.80;12.55;;;17.30;99.90;;;;;;5011821;28;20064;-60
2023/10/02 07:25:52;;;;;;;24.48;13.07;;;17.30;99.90;;;;;;5012391;28;20065;-60
2023/10/02 07:28:22;;;;;;;22.77;13.07;;;17.40;99.90;;;;;;5011868;28;20050;-59
2023/10/02 07:30:53;;;;;;;20.48;12.82;;;17.50;99.90;;;;;;5011269;28;20073;-59
2023/10/02 07:33:19;;;;;;;23.27;12.73;;;17.60;99.90;;;;;;5011904;28;20049;-59
2023/10/02 07:35:53;;;;;;;21.10;11.60;;;17.50;99.90;;;;;;5011322;28;20410;-60
2023/10/02 07:38:21;;;;;;;26.80;13.88;;;17.60;99.90;;;;;;5011515;28;20112;-60
2023/10/02 07:40:51;;;;;;;21.48;12.10;;;17.60;99.90;;;;;;5004051;28;20047;-59
2023/10/02 07:43:21;;;;;;;26.75;13.85;;;17.70;99.90;;;;;;4992164;28;20051;-59
2023/10/02 07:46:14;;;;;;;20.70;12.77;;;17.80;99.90;;;;;;4992354;28;20124;-62
2023/10/02 07:48:41;;;;;;;22.10;13.57;;;17.90;99.90;;;;;;4991862;28;20116;-62
2023/10/02 07:51:11;;;;;;;23.00;13.93;;;17.90;99.90;;;;;;5002089;28;20045;-59
2023/10/02 07:53:40;;;;;;;23.48;13.40;;;18.00;99.90;;;;;;5006531;28;20050;-60
2023/10/02 07:56:14;;;;;;;21.60;13.13;;;18.10;99.90;;;;;;4992115;28;20145;-61
2023/10/02 07:58:54;;;;;;;21.85;12.73;;;18.20;99.90;;;;;;4995212;28;20056;-61
2023/10/02 08:01:23;;;;;;;26.27;12.90;;;18.20;99.90;;;;;;5006201;28;20042;-61
2023/10/02 08:03:50;;;;;;;24.55;13.38;;;18.40;99.90;;;;;;5010213;28;20052;-60
2023/10/02 08:06:21;;;;;;;26.65;13.90;;;18.30;99.90;;;;;;4999306;28;20046;-60
2023/10/02 08:09:35;;;;;;;24.10;13.02;;;18.50;99.90;;;;;;4998065;28;20050;-61
2023/10/02 08:11:35;;;;;;;23.55;14.07;;;18.50;99.90;;;;;;4984238;28;20078;-60
2023/10/02 08:14:05;;;;;;;23.70;13.60;;;18.70;99.90;;;;;;4995662;28;20085;-60
2023/10/02 08:16:34;;;;;;;24.27;14.05;;;18.60;99.90;;;;;;4995838;28;20042;-60
2023/10/02 08:19:05;;;;;;;23.50;13.57;;;18.70;99.90;;;;;;5011609;28;20441;-60
2023/10/02 08:21:35;;;;;;;24.40;14.25;;;18.80;99.90;;;;;;4999093;28;20050;-60
2023/10/02 08:24:05;;;;;;;25.50;15.18;;;18.90;99.90;;;;;;4996232;28;20189;-60
2023/10/02 08:26:40;;;;;;;28.08;15.68;;;19.00;99.90;;;;;;4996000;28;20073;-61
2023/10/02 08:29:18;;;;;;;24.23;13.98;;;19.00;99.90;;;;;;5015558;28;20085;-61
2023/10/02 08:31:49;;;;;;;23.02;14.52;;;19.10;99.90;;;;;;5000313;28;20042;-61
2023/10/02 08:34:19;;;;;;;27.77;15.88;;;19.20;99.90;;;;;;4996964;28;20050;-60
2023/10/02 08:36:48;;;;;;;27.40;14.75;;;19.20;99.90;;;;;;4997318;28;20417;-59
2023/10/02 08:39:21;;;;;;;27.63;15.55;;;19.40;99.90;;;;;;4997498;28;20411;-61
2023/10/02 08:41:50;;;;;;;29.50;15.45;;;19.20;99.90;;;;;;4982410;28;20082;-59
2023/10/02 08:44:17;;;;;;;26.05;15.52;;;19.30;99.90;;;;;;4995740;28;20470;-60
2023/10/02 08:46:44;;;;;;;30.10;15.60;;;19.20;99.90;;;;;;4994838;28;20375;-60
2023/10/02 08:49:12;;;;;;;26.23;15.55;;;19.20;99.90;;;;;;4995830;28;20120;-60
2023/10/02 08:51:39;;;;;;;28.55;16.42;;;19.20;99.90;;;;;;5008605;28;20050;-61
2023/10/02 08:54:06;;;;;;;29.73;16.75;;;19.20;99.90;;;;;;5014846;28;20057;-60
2023/10/02 08:56:48;;;;;;;29.48;16.60;;;19.20;99.90;;;;;;5014657;28;20046;-60
2023/10/02 08:59:18;;;;;;;29.48;17.75;;;19.30;99.90;;;;;;5006229;28;20042;-60
2023/10/02 09:01:51;;;;;;;28.63;16.30;;;19.20;99.90;;;;;;4995870;28;20105;-61
2023/10/02 09:06:58;;;;;;;26.17;16.27;;;19.40;99.90;;;;;;4994718;28;20053;-60
2023/10/02 09:09:27;;;;;;;31.45;17.00;;;19.50;99.90;;;;;;5004578;28;20046;-60
2023/10/02 09:11:57;;;;;;;30.15;17.17;;;19.60;99.90;;;;;;4980963;28;20054;-60
2023/10/02 09:19:53;;;;;;;34.47;18.58;;;19.80;99.90;;;;;;4995335;28;20441;-60
2023/10/02 09:22:21;;;;;;;32.80;18.98;;;19.90;99.90;;;;;;4995021;28;20109;-60
2023/10/02 09:24:59;;;;;;;38.05;20.42;;;20.00;99.90;;;;;;4994890;28;20055;-59
2023/10/02 09:27:38;;;;;;;36.60;19.17;;;20.20;99.90;;;;;;4976552;28;20502;-60
2023/10/02 09:30:15;;;;;;;32.92;19.73;;;20.20;99.90;;;;;;4995369;28;20058;-60
2023/10/02 09:32:49;;;;;;;31.65;18.05;;;20.40;99.90;;;;;;5014193;28;20050;-61
2023/10/02 09:35:29;;;;;;;36.88;21.08;;;20.60;99.90;;;;;;5013045;28;20050;-60
2023/10/02 09:38:04;;;;;;;32.28;20.15;;;20.60;99.90;;;;;;4993365;28;20042;-59
2023/10/02 09:40:59;;;;;;;41.33;20.50;;;20.60;99.90;;;;;;5010176;28;20058;-61
2023/10/02 09:43:28;;;;;;;36.40;20.55;;;20.60;99.90;;;;;;5013833;28;20471;-59
2023/10/02 09:45:58;;;;;;;37.47;19.67;;;20.50;99.90;;;;;;5013672;28;20054;-58
2023/10/02 09:51:45;;;;;;;35.88;18.80;;;20.60;99.90;;;;;;5013450;28;20058;-61
2023/10/02 09:54:14;;;;;;;30.17;18.27;;;20.40;99.90;;;;;;5013239;28;20050;-60
2023/10/02 09:57:04;;;;;;;34.03;18.15;;;20.40;99.90;;;;;;5013001;28;20053;-61
2023/10/02 09:59:45;;;;;;;30.75;18.23;;;20.50;99.90;;;;;;5013511;28;20050;-58
2023/10/02 10:07:52;;;;;;;32.53;19.83;;;20.70;99.90;;;;;;4983759;28;20486;-60
2023/10/02 10:10:45;;;;;;;34.70;18.95;;;20.70;99.90;;;;;;5013062;28;20137;-61
2023/10/02 10:13:31;;;;;;;34.65;19.23;;;20.70;99.90;;;;;;5012634;28;20130;-62
2023/10/02 10:16:19;;;;;;;31.20;18.95;;;20.80;99.90;;;;;;5013166;28;20061;-60
2023/10/02 10:22:01;;;;;;;31.50;18.73;;;21.00;99.90;;;;;;4995282;28;20054;-59
2023/10/02 10:24:59;;;;;;;33.63;20.13;;;21.00;99.90;;;;;;5012446;28;20046;-61
2023/10/02 10:27:41;;;;;;;32.67;19.38;;;20.90;99.90;;;;;;5012713;28;20073;-60
2023/10/02 10:30:26;;;;;;;34.42;19.38;;;21.00;99.90;;;;;;5012338;28;20105;-61
2023/10/02 10:35:41;;;;;;;32.92;20.13;;;20.90;99.90;;;;;;5012707;28;20054;-61
2023/10/02 10:38:25;;;;;;;30.63;19.85;;;21.00;99.90;;;;;;5012521;28;20104;-61
2023/10/02 10:40:59;;;;;;;31.90;20.02;;;21.10;99.90;;;;;;5012113;28;20458;-61
2023/10/02 10:46:16;;;;;;;35.63;19.60;;;21.40;99.90;;;;;;5012855;28;20053;-61
2023/10/02 10:48:48;;;;;;;35.95;20.13;;;21.60;99.90;;;;;;5012618;28;20088;-61
2023/10/02 10:51:21;;;;;;;32.97;19.25;;;21.90;99.90;;;;;;4995124;28;20064;-61
2023/10/02 10:53:52;;;;;;;31.52;18.73;;;22.00;99.90;;;;;;5012937;28;20159;-61
2023/10/02 10:56:19;;;;;;;32.03;18.23;;;22.10;99.90;;;;;;4995007;28;20316;-60
2023/10/02 10:58:50;;;;;;;32.22;18.98;;;22.20;99.90;;;;;;5011407;28;20049;-60
2023/10/02 11:01:22;;;;;;;29.05;19.08;;;22.30;99.90;;;;;;5012251;28;20046;-59
2023/10/02 11:03:54;;;;;;;30.98;19.73;;;22.10;99.90;;;;;;5013064;28;20072;-60
2023/10/02 11:06:53;;;;;;;33.95;18.80;;;22.10;99.90;;;;;;5012721;28;20073;-60
2023/10/02 11:09:23;;;;;;;30.08;17.58;;;22.00;99.90;;;;;;5012881;28;20057;-60
2023/10/02 11:11:49;;;;;;;33.38;19.35;;;22.10;99.90;;;;;;5012586;28;20068;-59
2023/10/02 11:14:22;;;;;;;31.88;19.02;;;22.20;99.90;;;;;;5012461;28;20050;-59
2023/10/02 11:16:54;;;;;;;29.42;17.23;;;22.20;99.90;;;;;;5012084;28;20050;-60
2023/10/02 11:19:23;;;;;;;;;;;22.20;99.90;;;;;;5012358;28;20378;-60
2023/10/02 11:22:21;;;;;;;32.90;17.13;;;22.30;99.90;;;;;;5011807;28;20343;-61
2023/10/02 11:25:20;;;;;;;29.27;16.70;;;22.30;99.90;;;;;;4994957;28;20065;-59
2023/10/02 11:27:57;;;;;;;31.40;18.05;;;22.40;99.90;;;;;;5011907;28;20064;-59
2023/10/02 11:30:31;;;;;;;26.33;16.48;;;22.40;99.90;;;;;;5012347;28;20042;-60
2023/10/02 11:33:04;;;;;;;31.42;16.08;;;22.30;99.90;;;;;;5011734;28;20369;-60
2023/10/02 11:35:38;;;;;;;27.35;17.23;;;22.50;99.90;;;;;;4994984;28;20046;-60
2023/10/02 11:38:07;;;;;;;35.05;17.48;;;22.40;99.90;;;;;;5015162;28;20628;-61
2023/10/02 11:40:34;;;;;;;26.75;16.15;;;22.30;99.90;;;;;;5015219;28;20053;-60
2023/10/02 11:43:00;;;;;;;28.63;16.90;;;22.40;99.90;;;;;;5016342;28;20053;-60
2023/10/02 11:45:32;;;;;;;28.83;17.08;;;22.30;99.90;;;;;;5016456;28;20504;-59
2023/10/02 11:47:58;;;;;;;26.98;15.18;;;22.40;99.90;;;;;;5015731;28;20374;-58
2023/10/02 11:50:25;;;;;;;23.33;15.65;;;22.50;99.90;;;;;;5015673;28;20200;-59
2023/10/02 11:52:51;;;;;;;26.70;15.57;;;22.50;99.90;;;;;;5015654;28;20050;-59
2023/10/02 11:55:18;;;;;;;24.27;14.13;;;22.70;99.90;;;;;;5016009;28;20369;-59
2023/10/02 11:57:53;;;;;;;24.02;14.30;;;22.70;99.90;;;;;;4998098;28;20050;-60
2023/10/02 12:00:21;;;;;;;21.52;13.60;;;22.70;99.90;;;;;;5015509;28;20469;-60
2023/10/02 12:02:49;;;;;;;23.17;12.55;;;22.80;99.90;;;;;;5015715;28;20528;-59
2023/10/02 12:05:16;;;;;;;20.73;13.07;;;22.90;99.90;;;;;;5015715;28;20057;-60
2023/10/02 12:07:44;;;;;;;24.08;14.38;;;22.90;99.90;;;;;;5015412;28;20046;-59
2023/10/02 12:10:15;;;;;;;22.35;13.43;;;22.90;99.90;;;;;;5015263;28;20046;-61
2023/10/02 12:12:45;;;;;;;20.35;13.27;;;22.90;99.90;;;;;;4998063;28;20050;-59
2023/10/02 12:15:15;;;;;;;25.52;15.18;;;22.90;99.90;;;;;;5015427;28;20050;-62
2023/10/02 12:17:41;;;;;;;23.77;13.20;;;22.80;99.90;;;;;;5014889;28;20050;-61
2023/10/02 12:20:11;;;;;;;23.20;14.35;;;22.80;99.90;;;;;;5014981;28;20057;-60
2023/10/02 12:22:37;;;;;;;22.50;13.40;;;22.90;99.90;;;;;;4995869;28;20461;-60
2023/10/02 12:25:09;;;;;;;21.83;13.93;;;23.00;99.90;;;;;;4995952;28;20054;-60
2023/10/02 12:27:38;;;;;;;23.08;13.68;;;23.10;99.90;;;;;;4995501;28;20459;-60
2023/10/02 12:30:06;;;;;;;23.15;12.70;;;23.10;99.90;;;;;;4995721;28;20343;-60
2023/10/02 12:32:33;;;;;;;21.60;13.48;;;23.20;99.90;;;;;;5014759;28;20064;-59
2023/10/02 12:35:00;;;;;;;19.95;11.48;;;23.20;99.90;;;;;;4997622;28;20062;-59
2023/10/02 12:37:26;;;;;;;21.38;12.75;;;23.20;99.90;;;;;;4996971;28;20054;-59
2023/10/02 12:39:55;;;;;;;20.63;13.30;;;23.20;99.90;;;;;;5014643;28;20060;-59
2023/10/02 12:42:22;;;;;;;20.10;12.02;;;23.20;99.90;;;;;;5013848;28;20053;-61
2023/10/02 12:44:48;;;;;;;19.42;12.18;;;23.30;99.90;;;;;;5015460;28;20061;-60
2023/10/02 12:47:15;;;;;;;17.73;11.77;;;23.40;99.90;;;;;;4987723;28;20189;-61
2023/10/02 12:49:41;;;;;;;19.35;12.13;;;23.50;99.90;;;;;;4995969;28;20063;-61
2023/10/02 12:52:09;;;;;;;23.70;12.55;;;23.50;99.90;;;;;;4991457;28;20064;-61
2023/10/02 12:54:35;;;;;;;23.15;13.95;;;23.50;99.90;;;;;;5014523;28;20054;-61
2023/10/02 12:57:05;;;;;;;22.33;13.07;;;23.40;99.90;;;;;;5014502;28;20041;-59
2023/10/02 12:59:34;;;;;;;21.83;12.43;;;23.30;99.90;;;;;;5013500;28;20125;-60
2023/10/02 13:02:02;;;;;;;22.23;13.13;;;23.50;99.90;;;;;;5014291;28;20053;-60
2023/10/02 13:04:30;;;;;;;24.35;12.90;;;23.50;99.90;;;;;;5014498;28;20046;-60
2023/10/02 13:06:56;;;;;;;20.58;11.82;;;23.50;99.90;;;;;;5014226;28;20324;-60
2023/10/02 13:09:27;;;;;;;22.55;13.85;;;23.60;99.90;;;;;;5014689;28;20463;-58
2023/10/02 13:11:55;;;;;;;22.25;13.07;;;23.60;99.90;;;;;;4997409;28;20050;-61
2023/10/02 13:14:23;;;;;;;21.85;12.82;;;23.70;99.90;;;;;;5014636;28;20050;-60
2023/10/02 13:16:49;;;;;;;21.80;12.88;;;23.70;99.90;;;;;;5014048;28;20046;-60
2023/10/02 13:19:16;;;;;;;23.00;13.77;;;23.60;99.90;;;;;;4997306;28;20115;-61
2023/10/02 13:21:42;;;;;;;23.45;12.73;;;23.60;99.90;;;;;;5014137;28;20359;-61
2023/10/02 13:24:17;;;;;;;21.63;12.65;;;23.70;99.90;;;;;;5014521;28;20046;-61
2023/10/02 13:26:44;;;;;;;21.20;12.57;;;23.70;99.90;;;;;;5013580;28;20385;-60
2023/10/02 13:29:18;;;;;;;19.05;12.35;;;23.80;99.90;;;;;;5014181;28;20046;-60
2023/10/02 13:31:47;;;;;;;23.45;13.80;;;23.80;99.90;;;;;;5013902;28;20090;-60
2023/10/02 13:34:14;;;;;;;21.40;12.75;;;23.70;99.90;;;;;;5013985;28;20123;-61
2023/10/02 13:36:40;;;;;;;20.75;12.77;;;23.70;99.90;;;;;;4995920;28;20050;-61
2023/10/02 13:39:12;;;;;;;25.17;14.10;;;23.70;99.90;;;;;;5013649;28;20058;-61
2023/10/02 13:41:39;;;;;;;22.33;13.13;;;23.70;99.90;;;;;;5013907;28;20046;-59
2023/10/02 13:44:07;;;;;;;21.75;12.32;;;23.60;99.90;;;;;;5014239;28;20054;-59